EKOD/ODE METAR and TAF weather

Enter ICAO airport designator
Station Type Date Time Source
EKOD METAR 2019/10/21 14:50 UTC NOAA

EKOD 211450Z 05009KT 2700 -RA BR FEW002 BKN004 OVC007 11/10 Q1017


Station Type Date Time Source
EKOD Decoded METAR 2019/10/21 14:50 UTC NOAA

Odense / Beldringe, Denmark (EKOD) 55-29N 010-20E 17M
Oct 21, 2019 - 10:50 AM EDT / 2019.10.21 1450 UTC
Wind: from the NE (050 degrees) at 10 MPH (9 KT):0
Visibility: 1 mile(s):0
Sky conditions: overcast
Weather: light rain; mist
Temperature: 51 F (11 C)
Dew Point: 50 F (10 C)
Relative Humidity: 93%
Pressure (altimeter): 30.03 in. Hg (1017 hPa)
ob: EKOD 211450Z 05009KT 2700 -RA BR FEW002 BKN004 OVC007 11/10 Q1017
cycle: 15

Station Type Date Time Source
EKOD TAF 2015/04/20 17:00 UTC NOAA

TAF
AMD EKOD 201701Z 2017/2018 CNL

Example: see airport list